Elisabeth Mann Borge — DBKR — position and weather

sailwx.info

Track history (hours):
 
Tides and Currents Weather Stations Pressure Air Temp Water Temp Dewpoint Dewpoint Depression Visibility Wind Speed Wind Dir Waves Ship Positions

Elisabeth Mann Borge

Last reported at 2020-Apr-09 12:00 UTC. Time now 2020-Apr-09 12:58 UTC.
Position N 54°06' E 012°06'.

Length 57 m; draft 3.8 m.

Type: Other ship. MMSI: 211601000.

Wind from 290 at 10 knots

Barometer 1025.1 mb
Air temperature 10.3 ° C
Dewpoint 5.5 ° C
Water temperature 10.1 ° C

Date/timePositionNaut miles runAvg speedWind from/ knotsBaromVisibWave heightAir tempDewpointWater temp
2020-Apr-09 12:00N 54°06' E 012°06'0 0.0 290 / 101025.1 10.3 5.510.1
2020-Apr-09 11:00N 54°06' E 012°06'0 0.0 290 / 101024.7 10.5 5.9 8.4
2020-Apr-09 10:00N 54°06' E 012°06'0 0.0 300 / 81024.4 10.2 5.510.3
2020-Apr-09 09:00N 54°06' E 012°06'0 0.0 290 / 101023.9 9.8 5.8 8.5
2020-Apr-09 08:00N 54°06' E 012°06'0 0.0 310 / 121023.2 10.2 5.2 9.3
2020-Apr-09 07:00N 54°06' E 012°06'0 0.0 280 / 81022.6 10.2 4.5 8.5
2020-Apr-09 06:00N 54°06' E 012°06'0 0.0 290 / 61022.3 8.8 4.5 8.8
2020-Apr-09 05:00N 54°06' E 012°06'0 0.0 270 / 61021.9 7.7 4.6 8.8
2020-Apr-09 04:00N 54°06' E 012°06'0 0.0 280 / 41021.8 7.9 4.8 8.7
2020-Apr-09 03:00N 54°06' E 012°06'0 0.0 280 / 61021.5 8.4 5.0 9.7
2020-Apr-09 02:00N 54°06' E 012°06'0 0.0 290 / 61021.3 9.1 4.8 9.1
2020-Apr-09 01:00N 54°06' E 012°06'0 0.0 300 / 61021.7 10.4 4.3 8.9
2020-Apr-09 00:00N 54°06' E 012°06'0 0.0 290 / 61021.8 10.9 4.9 9.0
2020-Apr-08 23:00N 54°06' E 012°06'0 0.0 290 / 61021.8 11.4 5.6 9.1
2020-Apr-08 22:00N 54°06' E 012°06'0 0.0 290 / 61022.0 12.4 5.8 9.0
2020-Apr-08 21:00N 54°06' E 012°06'0 0.0 280 / 41021.9 13.1 6.7 9.1
2020-Apr-08 20:00N 54°06' E 012°06'0 0.0 1022.0 14.9 7.2 8.3
2020-Apr-08 19:00N 54°06' E 012°06'0 0.0 250 / 41021.6 17.2 6.810.2
2020-Apr-08 18:00N 54°06' E 012°06'0 0.0 230 / 41021.4 19.1 6.3 9.8
2020-Apr-08 17:00N 54°06' E 012°06'0 0.0 230 / 61021.7 20.6 5.8 9.4
2020-Apr-08 16:00N 54°06' E 012°06'0 0.0 210 / 81022.1 21.2 5.1 9.0
2020-Apr-08 15:00N 54°06' E 012°06'0 0.0 210 / 81022.9 20.9 5.510.0
2020-Apr-08 14:00N 54°06' E 012°06'0 0.0 170 / 61024.0 20.0 5.4 9.2
2020-Apr-08 13:00N 54°06' E 012°06'0 0.0 150 / 81025.0 19.3 4.7 8.9
2020-Apr-08 12:00N 54°06' E 012°06'0 0.0 130 / 61026.1 17.9 4.5 9.2
2020-Apr-08 11:00N 54°06' E 012°06'0 0.0 120 / 81027.0 16.8 3.8 9.2
2020-Apr-08 10:00N 54°06' E 012°06'0 0.0 140 / 61028.2 15.7 2.4 8.9
2020-Apr-08 09:00N 54°06' E 012°06'0 0.0 140 / 81029.2 13.6 2.9 9.3
2020-Apr-08 08:00N 54°06' E 012°06'0 0.0 140 / 61029.8 12.5 2.7 9.3
2020-Apr-08 07:00N 54°06' E 012°06'0 0.0 140 / 41030.5 10.4 2.8 9.6
2020-Apr-08 06:00N 54°06' E 012°06'0 0.0 150 / 41031.0 8.0 2.7 9.3
2020-Apr-08 05:00N 54°06' E 012°06'0 0.0 1031.3 4.8 2.7 9.4
2020-Apr-08 04:00N 54°06' E 012°06'0 0.0 140 / 41031.6 6.1 2.4 9.4
2020-Apr-08 03:00N 54°06' E 012°06'0 0.0 160 / 41032.1 5.9 2.6 8.5
2020-Apr-08 02:00N 54°06' E 012°06'0 0.0 1032.4 5.4 2.3 9.4
2020-Apr-08 01:00N 54°06' E 012°06'0 0.0 1032.7 5.2 3.1 9.2
2020-Apr-08 00:00N 54°06' E 012°06'0 0.0 1033.1 5.8 2.7 9.6
2020-Apr-07 23:00N 54°06' E 012°06'0 0.0 1033.2 5.8 3.2 9.1
2020-Apr-07 22:00N 54°06' E 012°06'0 0.0 1033.4 7.5 2.2 9.6
2020-Apr-07 21:00N 54°06' E 012°06'0 0.0 1033.4 8.3 2.5 9.5
2020-Apr-07 20:00N 54°06' E 012°06'0 0.0 1033.5 9.6 2.3 9.9
2020-Apr-07 19:00N 54°06' E 012°06'0 0.0 1033.4 11.3 1.4 9.7
2020-Apr-07 18:00N 54°06' E 012°06'0 0.0 1033.1 11.9 1.5 9.7
2020-Apr-07 17:00N 54°06' E 012°06'0 0.0 320 / 41033.2 14.2 1.3 9.5
2020-Apr-07 16:00N 54°06' E 012°06'0 0.0 310 / 61033.1 15.0 2.2 9.2
2020-Apr-07 15:00N 54°06' E 012°06'0 0.0 320 / 101033.1 14.7 2.1 9.5
2020-Apr-07 14:00N 54°06' E 012°06'113.1 310 / 101033.2 15.0 2.0 9.0
2020-Apr-07 13:56N 54°07' E 012°05'1 0.8
2020-Apr-07 13:00N 54°06' E 012°06'0 0.0 320 / 81033.1 15.0 2.8 9.4
2020-Apr-07 12:00N 54°06' E 012°06'1 1.7 300 / 81032.7 14.9 1.8 8.4
2020-Apr-07 11:32N 54°07' E 012°05'1 1.4
2020-Apr-07 11:00N 54°06' E 012°06'0 0.0 310 / 101032.4 14.2 2.6 8.8
2020-Apr-07 10:00N 54°06' E 012°06'1 1.3 310 / 101032.1 13.3 3.6 7.8
2020-Apr-07 09:23N 54°07' E 012°05'1 2.0
2020-Apr-07 09:00N 54°06' E 012°06'0 0.0 290 / 101031.5 11.8 5.2 8.7
2020-Apr-07 08:00N 54°06' E 012°06'0 0.0 300 / 101030.4 11.6 6.8 8.4
2020-Apr-07 07:00N 54°06' E 012°06'0 0.0 300 / 121029.5 10.5 6.8 8.1
2020-Apr-07 06:00N 54°06' E 012°06'0 0.0 280 / 81028.5 9.4 6.6 8.6
2020-Apr-07 05:00N 54°06' E 012°06'0 0.0 290 / 81027.3 9.1 6.6 8.1
2020-Apr-07 04:00N 54°06' E 012°06'0 0.0 290 / 81026.1 9.9 5.9 8.3
2020-Apr-07 03:00N 54°06' E 012°06'0 0.0 290 / 61025.1 11.3 4.6 8.9
2020-Apr-07 02:00N 54°06' E 012°06'0 0.0 270 / 61024.2 13.1 2.9 8.1
2020-Apr-07 01:00N 54°06' E 012°06'0 0.0 220 / 41023.2 14.0 1.3 9.1
2020-Apr-07 00:00N 54°06' E 012°06'0 0.0 160 / 41022.9 13.5 1.7 8.5
2020-Apr-06 23:00N 54°06' E 012°06'0 0.0 190 / 41022.7 15.1 1.1 9.0
2020-Apr-06 22:00N 54°06' E 012°06'0 0.0 190 / 61022.4 15.7 1.1 7.9
2020-Apr-06 21:00N 54°06' E 012°06'0 0.0 1022.4 15.5 1.0 8.0
2020-Apr-06 20:00N 54°06' E 012°06'0 0.0 160 / 41022.4 15.7 1.2 8.0
2020-Apr-06 19:00N 54°06' E 012°06'0 0.0 160 / 41022.1 16.4 1.2 8.4
2020-Apr-06 18:00N 54°06' E 012°06'0 0.0 170 / 41021.5 18.6 0.9 7.8
2020-Apr-06 17:00N 54°06' E 012°06'0 0.0 190 / 61021.4 20.4 0.7 7.8
2020-Apr-06 16:00N 54°06' E 012°06'0 0.0 190 / 101021.2 20.7-0.0 8.2
2020-Apr-06 15:00N 54°06' E 012°06'0 0.0 180 / 101021.4 21.0 2.1 8.1
2020-Apr-06 14:00N 54°06' E 012°06'0 0.0 160 / 81021.5 20.9 2.0 8.0
2020-Apr-06 13:00N 54°06' E 012°06'0 0.0 190 / 81021.7 19.4 1.9 7.9
2020-Apr-06 12:00N 54°06' E 012°06'0 0.0 160 / 101021.8 18.9 1.7 8.0
2020-Apr-06 11:00N 54°06' E 012°06'0 0.0 160 / 101022.1 17.1 1.9 8.1
2020-Apr-06 10:00N 54°06' E 012°06'0 0.0 150 / 81022.3 15.9 0.2 7.9
2020-Apr-06 09:00N 54°06' E 012°06'0 0.0 150 / 121022.6 13.7 1.2 7.8
2020-Apr-06 08:00N 54°06' E 012°06'0 0.0 150 / 101022.8 11.7 0.6 7.9
2020-Apr-06 07:00N 54°06' E 012°06'186.1 150 / 81023.2 9.5-0.0 7.8
2020-Apr-06 06:59N 54°07' E 012°05'1 0.8
2020-Apr-06 06:00N 54°06' E 012°06'0 0.0 140 / 81023.2 7.2-0.4 8.2
2020-Apr-06 05:00N 54°06' E 012°06'1 1.2 140 / 81023.3 6.0-0.5 8.2
2020-Apr-06 04:20N 54°07' E 012°05'1 2.2
2020-Apr-06 04:00N 54°06' E 012°06'0 0.0 140 / 61023.6 6.3-0.0 8.5
2020-Apr-06 03:00N 54°06' E 012°06'186.1 110 / 41024.0 6.1-0.0 9.0
2020-Apr-06 02:59N 54°07' E 012°05'0 0.0
2020-Apr-06 02:29N 54°07' E 012°05'1 1.6
2020-Apr-06 02:00N 54°06' E 012°06'0 0.0 130 / 41024.1 6.9 0.5 8.7
2020-Apr-06 01:00N 54°06' E 012°06'188.9 130 / 41024.4 7.7 0.8 8.6
2020-Apr-06 00:59N 54°07' E 012°05'1 0.8
2020-Apr-06 00:00N 54°06' E 012°06'0 0.0 130 / 41024.7 8.0 0.6 8.8
2020-Apr-05 23:00N 54°06' E 012°06'0 0.0 140 / 61025.3 9.0 0.9 8.6
2020-Apr-05 22:00N 54°06' E 012°06'0 0.0 140 / 61025.6 10.0 0.2 8.9
2020-Apr-05 21:00N 54°06' E 012°06'0 0.0 140 / 61025.9 10.3 0.6 8.8
2020-Apr-05 20:00N 54°06' E 012°06'0 0.0 140 / 41026.3 10.6 1.2 9.3
2020-Apr-05 19:00N 54°06' E 012°06'0 0.0 120 / 61026.5 11.7-0.0 9.4
2020-Apr-05 18:00N 54°06' E 012°06'0 0.0 130 / 61026.5 13.1 1.5 9.3
2020-Apr-05 17:00N 54°06' E 012°06'0 0.0 130 / 101026.6 14.9 0.2 8.9
2020-Apr-05 16:00N 54°06' E 012°06'113.0 140 / 101026.7 15.9 0.1 8.7
2020-Apr-05 15:56N 54°07' E 012°05'1 0.8
2020-Apr-05 15:00N 54°06' E 012°06'0 0.0 160 / 101027.5 16.8-0.0 8.4
2020-Apr-05 14:00N 54°06' E 012°06'0 0.0 160 / 121028.2 15.7-1.3 8.2
2020-Apr-05 13:00N 54°06' E 012°06'0 0.0 150 / 101028.7 15.5-1.1 7.9
2020-Apr-05 12:00N 54°06' E 012°06'0 0.0 140 / 121029.3 14.5-0.9 8.0
2020-Apr-05 11:00N 54°06' E 012°06'186.1 140 / 101029.8 13.7-0.2 7.9
2020-Apr-05 10:59N 54°07' E 012°05'1 0.8
2020-Apr-05 10:00N 54°06' E 012°06'0 0.0 140 / 141030.5 12.8-0.2 8.0
2020-Apr-05 09:00N 54°06' E 012°06'0 0.0 150 / 121030.9 11.8-0.7 8.1
2020-Apr-05 08:00N 54°06' E 012°06'0 0.0 160 / 61031.2 10.7 0.1 8.3
2020-Apr-05 07:00N 54°06' E 012°06'1 0.9 150 / 41031.4 8.7-0.0 8.1
2020-Apr-05 06:08N 54°07' E 012°05'1 5.4
2020-Apr-05 06:00N 54°06' E 012°06'0 0.0 150 / 41031.0 5.5-0.7 8.1
2020-Apr-05 05:00N 54°06' E 012°06'0 0.0 130 / 41030.5 4.2-0.8 8.3
2020-Apr-05 04:00N 54°06' E 012°06'0 0.0 140 / 41030.1 4.2-0.7 8.2
2020-Apr-05 03:00N 54°06' E 012°06'0 0.0 1029.9 4.1-0.4 8.0
2020-Apr-05 02:00N 54°06' E 012°06'0 0.0 1029.6 4.9-0.2 8.2
2020-Apr-05 01:00N 54°06' E 012°06'0 0.0 1029.6 5.8-0.1 8.1
2020-Apr-05 00:00N 54°06' E 012°06'0 0.0 1029.4 7.3 0.1 8.2
2020-Apr-04 23:00N 54°06' E 012°06'0 0.0 180 / 41028.8 8.2 0.2 8.2
2020-Apr-04 22:00N 54°06' E 012°06'0 0.0 180 / 41028.5 8.5 0.8 8.0
2020-Apr-04 21:00N 54°06' E 012°06'0 0.0 180 / 41028.2 8.9 0.1 7.9
2020-Apr-04 20:00N 54°06' E 012°06'0 0.0 190 / 41027.9 9.5 0.4 7.9
2020-Apr-04 19:00N 54°06' E 012°06'0 0.0 1027.5 10.4 0.6 7.8
2020-Apr-04 18:00N 54°06' E 012°06'0 0.0 200 / 41026.8 10.7 1.2 7.7
2020-Apr-04 17:00N 54°06' E 012°06'0 0.0 220 / 41026.2 11.3 0.8 7.8
2020-Apr-04 16:00N 54°06' E 012°06'1 3.0 230 / 81025.9 11.9 0.6 7.7
2020-Apr-04 15:44N 54°07' E 012°05'1 1.0
2020-Apr-04 15:00N 54°06' E 012°06'1 1.9 240 / 61025.8 11.3 0.7 7.7
2020-Apr-04 14:35N 54°07' E 012°05'0 0.0
2020-Apr-04 14:11N 54°07' E 012°05'1 4.0
2020-Apr-04 14:00N 54°06' E 012°06'188.9 220 / 81025.5 10.6 0.6 7.7
2020-Apr-04 13:59N 54°07' E 012°05'1 0.8
2020-Apr-04 13:00N 54°06' E 012°06'0 0.0 220 / 81025.6 9.7 1.1 7.8
2020-Apr-04 12:00N 54°06' E 012°06'0 0.0 240 / 81025.4 9.4 0.9 7.6
2020-Apr-04 11:00N 54°06' E 012°06'1 7.0 240 / 81025.0 9.6 0.4 7.6
2020-Apr-04 10:53N 54°07' E 012°05'1 0.9
2020-Apr-04 10:00N 54°06' E 012°06'0 0.0 250 / 81025.0 8.7-0.1 7.8
2020-Apr-04 09:00N 54°06' E 012°06'0 0.0 250 / 81024.6 7.2 0.1 7.8
2020-Apr-04 08:00N 54°06' E 012°06'0 0.0 230 / 61023.9 5.7 0.8 7.7
2020-Apr-04 07:00N 54°06' E 012°06'0 0.0 230 / 61023.2 4.4 0.6 7.8
2020-Apr-04 06:00N 54°06' E 012°06'0 0.0 230 / 41022.5 2.6-0.0 8.1
2020-Apr-04 05:00N 54°06' E 012°06'0 0.0 230 / 41021.7 1.5-0.1 7.9
2020-Apr-04 04:00N 54°06' E 012°06'113.1 240 / 41021.1 1.4-0.2 7.9
2020-Apr-04 03:56N 54°07' E 012°05'1 0.8
2020-Apr-04 03:00N 54°06' E 012°06'0 0.0 250 / 41020.4 1.4-0.3 7.8
2020-Apr-04 02:00N 54°06' E 012°06'0 0.0 240 / 41019.9 2.0-0.0 7.7
2020-Apr-04 01:00N 54°06' E 012°06'0 0.0 240 / 61019.4 2.3-0.0 7.6
2020-Apr-04 00:00N 54°06' E 012°06'0 0.0 250 / 61018.9 2.8 0.1 7.5
2020-Apr-03 23:00N 54°06' E 012°06'0 0.0 250 / 61018.3 3.1 0.2 7.7
2020-Apr-03 22:00N 54°06' E 012°06'0 0.0 250 / 61017.7 3.5 0.3 7.5
2020-Apr-03 21:00N 54°06' E 012°06'0 0.0 240 / 41017.0 4.2-0.2 7.6
2020-Apr-03 20:00N 54°06' E 012°06'0 0.0 260 / 41016.5 5.3-0.7 7.6
2020-Apr-03 19:00N 54°06' E 012°06'0 0.0 250 / 61015.8 5.2 0.3 7.7
2020-Apr-03 18:00N 54°06' E 012°06'0 0.0 260 / 61015.0 6.2-0.4 7.6
2020-Apr-03 17:00N 54°06' E 012°06'0 0.0 280 / 81014.4 6.9-0.0 7.7
2020-Apr-03 16:00N 54°06' E 012°06'0 0.0 270 / 81013.7 7.4-0.7 7.8
2020-Apr-03 15:00N 54°06' E 012°06'0 0.0 250 / 121013.1 7.6-1.1 7.7
2020-Apr-03 14:00N 54°06' E 012°06'0 0.0 280 / 101012.4 8.6-0.3 7.6
2020-Apr-03 13:00N 54°06' E 012°06'1 3.0 300 / 141011.9 8.2-0.0 7.8
2020-Apr-03 12:44N 54°07' E 012°05'1 1.0
2020-Apr-03 12:00N 54°06' E 012°06'0 0.0 280 / 121011.4 8.5-1.4 7.5
2020-Apr-03 11:00N 54°06' E 012°06'0 0.0 280 / 121011.1 7.4-2.3 7.3
2020-Apr-03 10:00N 54°06' E 012°06'0 0.0 280 / 101010.2 6.7-0.7 7.2
2020-Apr-03 09:00N 54°06' E 012°06'0 0.0 260 / 121009.3 6.2 0.3 7.0
2020-Apr-03 08:00N 54°06' E 012°06'0 0.0 270 / 101008.6 5.6 0.6 7.1
2020-Apr-03 07:00N 54°06' E 012°06'0 0.0 260 / 121007.5 5.1 0.4 6.8
2020-Apr-03 06:00N 54°06' E 012°06'0 0.0 260 / 121006.8 4.6 0.2 7.1
2020-Apr-03 05:00N 54°06' E 012°06'0 0.0 260 / 101005.9 4.2 0.2 7.0
2020-Apr-03 04:00N 54°06' E 012°06'113.0 260 / 101005.2 4.4-0.2 7.3
2020-Apr-03 03:56N 54°07' E 012°05'1 0.8
2020-Apr-03 03:00N 54°06' E 012°06'0 0.0 260 / 141004.2 4.5-0.9 7.0
2020-Apr-03 02:00N 54°06' E 012°06'0 0.0 260 / 161003.4 4.6-1.2 7.1
2020-Apr-03 01:00N 54°06' E 012°06'0 0.0 260 / 141003.4 4.7-1.3 7.3
2020-Apr-03 00:00N 54°06' E 012°06'0 0.0 260 / 101003.3 5.3-0.2 7.2
2020-Apr-02 23:00N 54°06' E 012°06'0 0.0 260 / 121002.8 5.8 1.1 7.1
2020-Apr-02 22:00N 54°06' E 012°06'0 0.0 250 / 121002.6 6.1 1.0 7.2
2020-Apr-02 20:00N 54°06' E 012°06'0 0.0 250 / 121002.3 7.3 3.5 7.3
2020-Apr-02 19:00N 54°06' E 012°06'1 3.0 250 / 161002.7 8.6 1.3 7.4
2020-Apr-02 18:44N 54°07' E 012°05'1 1.0
2020-Apr-02 18:00N 54°06' E 012°06'0 0.0 250 / 141002.8 9.1 1.3 7.3
2020-Apr-02 17:00N 54°06' E 012°06'0 0.0 240 / 141003.1 9.4 0.4 7.4
2020-Apr-02 16:00N 54°06' E 012°06'0 0.0 230 / 141003.7 9.5 1.1 7.4
2020-Apr-02 15:00N 54°06' E 012°06'0 0.0 240 / 121004.7 9.7-0.0 7.4
2020-Apr-02 14:00N 54°06' E 012°06'0 0.0 240 / 161005.4 9.9 0.5 7.4
2020-Apr-02 13:00N 54°06' E 012°06'0 0.0 240 / 121006.1 10.0 0.4 7.2
2020-Apr-02 12:00N 54°06' E 012°06'1 0.2 240 / 161006.9 10.5 0.7 7.4
2020-Apr-02 07:20N 54°07' E 012°05'0 0.0
2020-Apr-01 22:35N 54°07' E 012°05'0 0.0
2020-Apr-01 10:20N 54°07' E 012°05'0 0.0
2020-Mar-31 17:56N 54°07' E 012°05'0 0.0
2020-Mar-31 15:32N 54°07' E 012°05'0 0.0
2020-Mar-31 06:29N 54°07' E 012°05'0 0.0
2020-Mar-30 17:23N 54°07' E 012°05'0 0.0
2020-Mar-30 16:29N 54°07' E 012°05'0 0.0
2020-Mar-30 14:17N 54°07' E 012°05'0 0.0
2020-Mar-30 13:59N 54°07' E 012°05'  
Track history (hours):
 
Tides and Currents Weather Stations Pressure Air Temp Water Temp Dewpoint Dewpoint Depression Visibility Wind Speed Wind Dir Waves Ship Positions

Elisabeth Mann Borge

Last reported at 2020-Apr-09 12:00 UTC. Time now 2020-Apr-09 12:58 UTC.
Position N 54°06' E 012°06'.

Length 57 m; draft 3.8 m.

Type: Other ship. MMSI: 211601000.

Wind from 290 at 10 knots

Barometer 1025.1 mb
Air temperature 10.3 ° C
Dewpoint 5.5 ° C
Water temperature 10.1 ° C

Date/timePositionNaut miles runAvg speedWind from/ knotsBaromVisibWave heightAir tempDewpointWater temp
2020-Apr-09 12:00N 54°06' E 012°06'0 0.0 290 / 101025.1 10.3 5.510.1
2020-Apr-09 11:00N 54°06' E 012°06'0 0.0 290 / 101024.7 10.5 5.9 8.4
2020-Apr-09 10:00N 54°06' E 012°06'0 0.0 300 / 81024.4 10.2 5.510.3
2020-Apr-09 09:00N 54°06' E 012°06'0 0.0 290 / 101023.9 9.8 5.8 8.5
2020-Apr-09 08:00N 54°06' E 012°06'0 0.0 310 / 121023.2 10.2 5.2 9.3
2020-Apr-09 07:00N 54°06' E 012°06'0 0.0 280 / 81022.6 10.2 4.5 8.5
2020-Apr-09 06:00N 54°06' E 012°06'0 0.0 290 / 61022.3 8.8 4.5 8.8
2020-Apr-09 05:00N 54°06' E 012°06'0 0.0 270 / 61021.9 7.7 4.6 8.8
2020-Apr-09 04:00N 54°06' E 012°06'0 0.0 280 / 41021.8 7.9 4.8 8.7
2020-Apr-09 03:00N 54°06' E 012°06'0 0.0 280 / 61021.5 8.4 5.0 9.7
2020-Apr-09 02:00N 54°06' E 012°06'0 0.0 290 / 61021.3 9.1 4.8 9.1
2020-Apr-09 01:00N 54°06' E 012°06'0 0.0 300 / 61021.7 10.4 4.3 8.9
2020-Apr-09 00:00N 54°06' E 012°06'0 0.0 290 / 61021.8 10.9 4.9 9.0
2020-Apr-08 23:00N 54°06' E 012°06'0 0.0 290 / 61021.8 11.4 5.6 9.1
2020-Apr-08 22:00N 54°06' E 012°06'0 0.0 290 / 61022.0 12.4 5.8 9.0
2020-Apr-08 21:00N 54°06' E 012°06'0 0.0 280 / 41021.9 13.1 6.7 9.1
2020-Apr-08 20:00N 54°06' E 012°06'0 0.0 1022.0 14.9 7.2 8.3
2020-Apr-08 19:00N 54°06' E 012°06'0 0.0 250 / 41021.6 17.2 6.810.2
2020-Apr-08 18:00N 54°06' E 012°06'0 0.0 230 / 41021.4 19.1 6.3 9.8
2020-Apr-08 17:00N 54°06' E 012°06'0 0.0 230 / 61021.7 20.6 5.8 9.4
2020-Apr-08 16:00N 54°06' E 012°06'0 0.0 210 / 81022.1 21.2 5.1 9.0
2020-Apr-08 15:00N 54°06' E 012°06'0 0.0 210 / 81022.9 20.9 5.510.0
2020-Apr-08 14:00N 54°06' E 012°06'0 0.0 170 / 61024.0 20.0 5.4 9.2
2020-Apr-08 13:00N 54°06' E 012°06'0 0.0 150 / 81025.0 19.3 4.7 8.9
2020-Apr-08 12:00N 54°06' E 012°06'0 0.0 130 / 61026.1 17.9 4.5 9.2
2020-Apr-08 11:00N 54°06' E 012°06'0 0.0 120 / 81027.0 16.8 3.8 9.2
2020-Apr-08 10:00N 54°06' E 012°06'0 0.0 140 / 61028.2 15.7 2.4 8.9
2020-Apr-08 09:00N 54°06' E 012°06'0 0.0 140 / 81029.2 13.6 2.9 9.3
2020-Apr-08 08:00N 54°06' E 012°06'0 0.0 140 / 61029.8 12.5 2.7 9.3
2020-Apr-08 07:00N 54°06' E 012°06'0 0.0 140 / 41030.5 10.4 2.8 9.6
2020-Apr-08 06:00N 54°06' E 012°06'0 0.0 150 / 41031.0 8.0 2.7 9.3
2020-Apr-08 05:00N 54°06' E 012°06'0 0.0 1031.3 4.8 2.7 9.4
2020-Apr-08 04:00N 54°06' E 012°06'0 0.0 140 / 41031.6 6.1 2.4 9.4
2020-Apr-08 03:00N 54°06' E 012°06'0 0.0 160 / 41032.1 5.9 2.6 8.5
2020-Apr-08 02:00N 54°06' E 012°06'0 0.0 1032.4 5.4 2.3 9.4
2020-Apr-08 01:00N 54°06' E 012°06'0 0.0 1032.7 5.2 3.1 9.2
2020-Apr-08 00:00N 54°06' E 012°06'0 0.0 1033.1 5.8 2.7 9.6
2020-Apr-07 23:00N 54°06' E 012°06'0 0.0 1033.2 5.8 3.2 9.1
2020-Apr-07 22:00N 54°06' E 012°06'0 0.0 1033.4 7.5 2.2 9.6
2020-Apr-07 21:00N 54°06' E 012°06'0 0.0 1033.4 8.3 2.5 9.5
2020-Apr-07 20:00N 54°06' E 012°06'0 0.0 1033.5 9.6 2.3 9.9
2020-Apr-07 19:00N 54°06' E 012°06'0 0.0 1033.4 11.3 1.4 9.7
2020-Apr-07 18:00N 54°06' E 012°06'0 0.0 1033.1 11.9 1.5 9.7
2020-Apr-07 17:00N 54°06' E 012°06'0 0.0 320 / 41033.2 14.2 1.3 9.5
2020-Apr-07 16:00N 54°06' E 012°06'0 0.0 310 / 61033.1 15.0 2.2 9.2
2020-Apr-07 15:00N 54°06' E 012°06'0 0.0 320 / 101033.1 14.7 2.1 9.5
2020-Apr-07 14:00N 54°06' E 012°06'113.1 310 / 101033.2 15.0 2.0 9.0
2020-Apr-07 13:56N 54°07' E 012°05'1 0.8
2020-Apr-07 13:00N 54°06' E 012°06'0 0.0 320 / 81033.1 15.0 2.8 9.4
2020-Apr-07 12:00N 54°06' E 012°06'1 1.7 300 / 81032.7 14.9 1.8 8.4
2020-Apr-07 11:32N 54°07' E 012°05'1 1.4
2020-Apr-07 11:00N 54°06' E 012°06'0 0.0 310 / 101032.4 14.2 2.6 8.8
2020-Apr-07 10:00N 54°06' E 012°06'1 1.3 310 / 101032.1 13.3 3.6 7.8
2020-Apr-07 09:23N 54°07' E 012°05'1 2.0
2020-Apr-07 09:00N 54°06' E 012°06'0 0.0 290 / 101031.5 11.8 5.2 8.7
2020-Apr-07 08:00N 54°06' E 012°06'0 0.0 300 / 101030.4 11.6 6.8 8.4
2020-Apr-07 07:00N 54°06' E 012°06'0 0.0 300 / 121029.5 10.5 6.8 8.1
2020-Apr-07 06:00N 54°06' E 012°06'0 0.0 280 / 81028.5 9.4 6.6 8.6
2020-Apr-07 05:00N 54°06' E 012°06'0 0.0 290 / 81027.3 9.1 6.6 8.1
2020-Apr-07 04:00N 54°06' E 012°06'0 0.0 290 / 81026.1 9.9 5.9 8.3
2020-Apr-07 03:00N 54°06' E 012°06'0 0.0 290 / 61025.1 11.3 4.6 8.9
2020-Apr-07 02:00N 54°06' E 012°06'0 0.0 270 / 61024.2 13.1 2.9 8.1
2020-Apr-07 01:00N 54°06' E 012°06'0 0.0 220 / 41023.2 14.0 1.3 9.1
2020-Apr-07 00:00N 54°06' E 012°06'0 0.0 160 / 41022.9 13.5 1.7 8.5
2020-Apr-06 23:00N 54°06' E 012°06'0 0.0 190 / 41022.7 15.1 1.1 9.0
2020-Apr-06 22:00N 54°06' E 012°06'0 0.0 190 / 61022.4 15.7 1.1 7.9
2020-Apr-06 21:00N 54°06' E 012°06'0 0.0 1022.4 15.5 1.0 8.0
2020-Apr-06 20:00N 54°06' E 012°06'0 0.0 160 / 41022.4 15.7 1.2 8.0
2020-Apr-06 19:00N 54°06' E 012°06'0 0.0 160 / 41022.1 16.4 1.2 8.4
2020-Apr-06 18:00N 54°06' E 012°06'0 0.0 170 / 41021.5 18.6 0.9 7.8
2020-Apr-06 17:00N 54°06' E 012°06'0 0.0 190 / 61021.4 20.4 0.7 7.8
2020-Apr-06 16:00N 54°06' E 012°06'0 0.0 190 / 101021.2 20.7-0.0 8.2
2020-Apr-06 15:00N 54°06' E 012°06'0 0.0 180 / 101021.4 21.0 2.1 8.1
2020-Apr-06 14:00N 54°06' E 012°06'0 0.0 160 / 81021.5 20.9 2.0 8.0
2020-Apr-06 13:00N 54°06' E 012°06'0 0.0 190 / 81021.7 19.4 1.9 7.9
2020-Apr-06 12:00N 54°06' E 012°06'0 0.0 160 / 101021.8 18.9 1.7 8.0
2020-Apr-06 11:00N 54°06' E 012°06'0 0.0 160 / 101022.1 17.1 1.9 8.1
2020-Apr-06 10:00N 54°06' E 012°06'0 0.0 150 / 81022.3 15.9 0.2 7.9
2020-Apr-06 09:00N 54°06' E 012°06'0 0.0 150 / 121022.6 13.7 1.2 7.8
2020-Apr-06 08:00N 54°06' E 012°06'0 0.0 150 / 101022.8 11.7 0.6 7.9
2020-Apr-06 07:00N 54°06' E 012°06'186.1 150 / 81023.2 9.5-0.0 7.8
2020-Apr-06 06:59N 54°07' E 012°05'1 0.8
2020-Apr-06 06:00N 54°06' E 012°06'0 0.0 140 / 81023.2 7.2-0.4 8.2
2020-Apr-06 05:00N 54°06' E 012°06'1 1.2 140 / 81023.3 6.0-0.5 8.2
2020-Apr-06 04:20N 54°07' E 012°05'1 2.2
2020-Apr-06 04:00N 54°06' E 012°06'0 0.0 140 / 61023.6 6.3-0.0 8.5
2020-Apr-06 03:00N 54°06' E 012°06'186.1 110 / 41024.0 6.1-0.0 9.0
2020-Apr-06 02:59N 54°07' E 012°05'0 0.0
2020-Apr-06 02:29N 54°07' E 012°05'1 1.6
2020-Apr-06 02:00N 54°06' E 012°06'0 0.0 130 / 41024.1 6.9 0.5 8.7
2020-Apr-06 01:00N 54°06' E 012°06'188.9 130 / 41024.4 7.7 0.8 8.6
2020-Apr-06 00:59N 54°07' E 012°05'1 0.8
2020-Apr-06 00:00N 54°06' E 012°06'0 0.0 130 / 41024.7 8.0 0.6 8.8
2020-Apr-05 23:00N 54°06' E 012°06'0 0.0 140 / 61025.3 9.0 0.9 8.6
2020-Apr-05 22:00N 54°06' E 012°06'0 0.0 140 / 61025.6 10.0 0.2 8.9
2020-Apr-05 21:00N 54°06' E 012°06'0 0.0 140 / 61025.9 10.3 0.6 8.8
2020-Apr-05 20:00N 54°06' E 012°06'0 0.0 140 / 41026.3 10.6 1.2 9.3
2020-Apr-05 19:00N 54°06' E 012°06'0 0.0 120 / 61026.5 11.7-0.0 9.4
2020-Apr-05 18:00N 54°06' E 012°06'0 0.0 130 / 61026.5 13.1 1.5 9.3
2020-Apr-05 17:00N 54°06' E 012°06'0 0.0 130 / 101026.6 14.9 0.2 8.9
2020-Apr-05 16:00N 54°06' E 012°06'113.0 140 / 101026.7 15.9 0.1 8.7
2020-Apr-05 15:56N 54°07' E 012°05'1 0.8
2020-Apr-05 15:00N 54°06' E 012°06'0 0.0 160 / 101027.5 16.8-0.0 8.4
2020-Apr-05 14:00N 54°06' E 012°06'0 0.0 160 / 121028.2 15.7-1.3 8.2
2020-Apr-05 13:00N 54°06' E 012°06'0 0.0 150 / 101028.7 15.5-1.1 7.9
2020-Apr-05 12:00N 54°06' E 012°06'0 0.0 140 / 121029.3 14.5-0.9 8.0
2020-Apr-05 11:00N 54°06' E 012°06'186.1 140 / 101029.8 13.7-0.2 7.9
2020-Apr-05 10:59N 54°07' E 012°05'1 0.8
2020-Apr-05 10:00N 54°06' E 012°06'0 0.0 140 / 141030.5 12.8-0.2 8.0
2020-Apr-05 09:00N 54°06' E 012°06'0 0.0 150 / 121030.9 11.8-0.7 8.1
2020-Apr-05 08:00N 54°06' E 012°06'0 0.0 160 / 61031.2 10.7 0.1 8.3
2020-Apr-05 07:00N 54°06' E 012°06'1 0.9 150 / 41031.4 8.7-0.0 8.1
2020-Apr-05 06:08N 54°07' E 012°05'1 5.4
2020-Apr-05 06:00N 54°06' E 012°06'0 0.0 150 / 41031.0 5.5-0.7 8.1
2020-Apr-05 05:00N 54°06' E 012°06'0 0.0 130 / 41030.5 4.2-0.8 8.3
2020-Apr-05 04:00N 54°06' E 012°06'0 0.0 140 / 41030.1 4.2-0.7 8.2
2020-Apr-05 03:00N 54°06' E 012°06'0 0.0 1029.9 4.1-0.4 8.0
2020-Apr-05 02:00N 54°06' E 012°06'0 0.0 1029.6 4.9-0.2 8.2
2020-Apr-05 01:00N 54°06' E 012°06'0 0.0 1029.6 5.8-0.1 8.1
2020-Apr-05 00:00N 54°06' E 012°06'0 0.0 1029.4 7.3 0.1 8.2
2020-Apr-04 23:00N 54°06' E 012°06'0 0.0 180 / 41028.8 8.2 0.2 8.2
2020-Apr-04 22:00N 54°06' E 012°06'0 0.0 180 / 41028.5 8.5 0.8 8.0
2020-Apr-04 21:00N 54°06' E 012°06'0 0.0 180 / 41028.2 8.9 0.1 7.9
2020-Apr-04 20:00N 54°06' E 012°06'0 0.0 190 / 41027.9 9.5 0.4 7.9
2020-Apr-04 19:00N 54°06' E 012°06'0 0.0 1027.5 10.4 0.6 7.8
2020-Apr-04 18:00N 54°06' E 012°06'0 0.0 200 / 41026.8 10.7 1.2 7.7
2020-Apr-04 17:00N 54°06' E 012°06'0 0.0 220 / 41026.2 11.3 0.8 7.8
2020-Apr-04 16:00N 54°06' E 012°06'1 3.0 230 / 81025.9 11.9 0.6 7.7
2020-Apr-04 15:44N 54°07' E 012°05'1 1.0
2020-Apr-04 15:00N 54°06' E 012°06'1 1.9 240 / 61025.8 11.3 0.7 7.7
2020-Apr-04 14:35N 54°07' E 012°05'0 0.0
2020-Apr-04 14:11N 54°07' E 012°05'1 4.0
2020-Apr-04 14:00N 54°06' E 012°06'188.9 220 / 81025.5 10.6 0.6 7.7
2020-Apr-04 13:59N 54°07' E 012°05'1 0.8
2020-Apr-04 13:00N 54°06' E 012°06'0 0.0 220 / 81025.6 9.7 1.1 7.8
2020-Apr-04 12:00N 54°06' E 012°06'0 0.0 240 / 81025.4 9.4 0.9 7.6
2020-Apr-04 11:00N 54°06' E 012°06'1 7.0 240 / 81025.0 9.6 0.4 7.6
2020-Apr-04 10:53N 54°07' E 012°05'1 0.9
2020-Apr-04 10:00N 54°06' E 012°06'0 0.0 250 / 81025.0 8.7-0.1 7.8
2020-Apr-04 09:00N 54°06' E 012°06'0 0.0 250 / 81024.6 7.2 0.1 7.8
2020-Apr-04 08:00N 54°06' E 012°06'0 0.0 230 / 61023.9 5.7 0.8 7.7
2020-Apr-04 07:00N 54°06' E 012°06'0 0.0 230 / 61023.2 4.4 0.6 7.8
2020-Apr-04 06:00N 54°06' E 012°06'0 0.0 230 / 41022.5 2.6-0.0 8.1
2020-Apr-04 05:00N 54°06' E 012°06'0 0.0 230 / 41021.7 1.5-0.1 7.9
2020-Apr-04 04:00N 54°06' E 012°06'113.1 240 / 41021.1 1.4-0.2 7.9
2020-Apr-04 03:56N 54°07' E 012°05'1 0.8
2020-Apr-04 03:00N 54°06' E 012°06'0 0.0 250 / 41020.4 1.4-0.3 7.8
2020-Apr-04 02:00N 54°06' E 012°06'0 0.0 240 / 41019.9 2.0-0.0 7.7
2020-Apr-04 01:00N 54°06' E 012°06'0 0.0 240 / 61019.4 2.3-0.0 7.6
2020-Apr-04 00:00N 54°06' E 012°06'0 0.0 250 / 61018.9 2.8 0.1 7.5
2020-Apr-03 23:00N 54°06' E 012°06'0 0.0 250 / 61018.3 3.1 0.2 7.7
2020-Apr-03 22:00N 54°06' E 012°06'0 0.0 250 / 61017.7 3.5 0.3 7.5
2020-Apr-03 21:00N 54°06' E 012°06'0 0.0 240 / 41017.0 4.2-0.2 7.6
2020-Apr-03 20:00N 54°06' E 012°06'0 0.0 260 / 41016.5 5.3-0.7 7.6
2020-Apr-03 19:00N 54°06' E 012°06'0 0.0 250 / 61015.8 5.2 0.3 7.7
2020-Apr-03 18:00N 54°06' E 012°06'0 0.0 260 / 61015.0 6.2-0.4 7.6
2020-Apr-03 17:00N 54°06' E 012°06'0 0.0 280 / 81014.4 6.9-0.0 7.7
2020-Apr-03 16:00N 54°06' E 012°06'0 0.0 270 / 81013.7 7.4-0.7 7.8
2020-Apr-03 15:00N 54°06' E 012°06'0 0.0 250 / 121013.1 7.6-1.1 7.7
2020-Apr-03 14:00N 54°06' E 012°06'0 0.0 280 / 101012.4 8.6-0.3 7.6
2020-Apr-03 13:00N 54°06' E 012°06'1 3.0 300 / 141011.9 8.2-0.0 7.8
2020-Apr-03 12:44N 54°07' E 012°05'1 1.0
2020-Apr-03 12:00N 54°06' E 012°06'0 0.0 280 / 121011.4 8.5-1.4 7.5
2020-Apr-03 11:00N 54°06' E 012°06'0 0.0 280 / 121011.1 7.4-2.3 7.3
2020-Apr-03 10:00N 54°06' E 012°06'0 0.0 280 / 101010.2 6.7-0.7 7.2
2020-Apr-03 09:00N 54°06' E 012°06'0 0.0 260 / 121009.3 6.2 0.3 7.0
2020-Apr-03 08:00N 54°06' E 012°06'0 0.0 270 / 101008.6 5.6 0.6 7.1
2020-Apr-03 07:00N 54°06' E 012°06'0 0.0 260 / 121007.5 5.1 0.4 6.8
2020-Apr-03 06:00N 54°06' E 012°06'0 0.0 260 / 121006.8 4.6 0.2 7.1
2020-Apr-03 05:00N 54°06' E 012°06'0 0.0 260 / 101005.9 4.2 0.2 7.0
2020-Apr-03 04:00N 54°06' E 012°06'113.0 260 / 101005.2 4.4-0.2 7.3
2020-Apr-03 03:56N 54°07' E 012°05'1 0.8
2020-Apr-03 03:00N 54°06' E 012°06'0 0.0 260 / 141004.2 4.5-0.9 7.0
2020-Apr-03 02:00N 54°06' E 012°06'0 0.0 260 / 161003.4 4.6-1.2 7.1
2020-Apr-03 01:00N 54°06' E 012°06'0 0.0 260 / 141003.4 4.7-1.3 7.3
2020-Apr-03 00:00N 54°06' E 012°06'0 0.0 260 / 101003.3 5.3-0.2 7.2
2020-Apr-02 23:00N 54°06' E 012°06'0 0.0 260 / 121002.8 5.8 1.1 7.1
2020-Apr-02 22:00N 54°06' E 012°06'0 0.0 250 / 121002.6 6.1 1.0 7.2
2020-Apr-02 20:00N 54°06' E 012°06'0 0.0 250 / 121002.3 7.3 3.5 7.3
2020-Apr-02 19:00N 54°06' E 012°06'1 3.0 250 / 161002.7 8.6 1.3 7.4
2020-Apr-02 18:44N 54°07' E 012°05'1 1.0
2020-Apr-02 18:00N 54°06' E 012°06'0 0.0 250 / 141002.8 9.1 1.3 7.3
2020-Apr-02 17:00N 54°06' E 012°06'0 0.0 240 / 141003.1 9.4 0.4 7.4
2020-Apr-02 16:00N 54°06' E 012°06'0 0.0 230 / 141003.7 9.5 1.1 7.4
2020-Apr-02 15:00N 54°06' E 012°06'0 0.0 240 / 121004.7 9.7-0.0 7.4
2020-Apr-02 14:00N 54°06' E 012°06'0 0.0 240 / 161005.4 9.9 0.5 7.4
2020-Apr-02 13:00N 54°06' E 012°06'0 0.0 240 / 121006.1 10.0 0.4 7.2
2020-Apr-02 12:00N 54°06' E 012°06'1 0.2 240 / 161006.9 10.5 0.7 7.4
2020-Apr-02 07:20N 54°07' E 012°05'0 0.0
2020-Apr-01 22:35N 54°07' E 012°05'0 0.0
2020-Apr-01 10:20N 54°07' E 012°05'0 0.0
2020-Mar-31 17:56N 54°07' E 012°05'0 0.0
2020-Mar-31 15:32N 54°07' E 012°05'0 0.0
2020-Mar-31 06:29N 54°07' E 012°05'0 0.0
2020-Mar-30 17:23N 54°07' E 012°05'0 0.0
2020-Mar-30 16:29N 54°07' E 012°05'0 0.0
2020-Mar-30 14:17N 54°07' E 012°05'0 0.0
2020-Mar-30 13:59N 54°07' E 012°05'  

Dump ship's entire track history